createdAt,value
2018-12-06T00:00:55.107Z,95670.2
2018-12-06T00:01:57.318Z,95664.7
2018-12-06T00:02:59.741Z,95677
2018-12-06T00:04:01.892Z,95676.3
2018-12-06T00:05:04.330Z,95679.8
2018-12-06T00:06:06.758Z,95679
2018-12-06T00:07:09.179Z,95672
2018-12-06T00:08:11.056Z,95663.9
2018-12-06T00:09:13.476Z,95662.6
2018-12-06T00:10:15.605Z,95659.4
2018-12-06T00:11:18.060Z,95665.4
2018-12-06T00:12:20.261Z,95675
2018-12-06T00:13:22.414Z,95664.4
2018-12-06T00:14:24.299Z,95663.9
2018-12-06T00:15:26.734Z,95659.1
2018-12-06T00:16:29.159Z,95647
2018-12-06T00:17:31.579Z,95641
2018-12-06T00:18:33.734Z,95645.5
2018-12-06T00:19:35.598Z,95644.2
2018-12-06T00:20:38.095Z,95648.4
2018-12-06T00:21:40.527Z,95637.4
2018-12-06T00:22:42.962Z,95630.3
2018-12-06T00:23:45.130Z,95632
2018-12-06T00:24:47.566Z,95627.3
2018-12-06T00:25:50.001Z,95634.3
2018-12-06T00:26:52.162Z,95633.4
2018-12-06T00:27:54.600Z,95631.6
2018-12-06T00:28:57.026Z,95655
2018-12-06T00:29:59.445Z,95673
2018-12-06T00:31:01.866Z,95681.1
2018-12-06T00:32:04.301Z,95688.5
2018-12-06T00:33:06.737Z,95695.6
2018-12-06T00:34:09.156Z,95698.2
2018-12-06T00:35:11.314Z,95701.4
2018-12-06T00:36:13.749Z,95702.5
2018-12-06T00:37:15.905Z,95698.7
2018-12-06T00:38:18.392Z,95696.2
2018-12-06T00:39:20.509Z,95696.3
2018-12-06T00:40:22.937Z,95697.4
2018-12-06T00:41:25.098Z,95695
2018-12-06T00:42:27.528Z,95695.8
2018-12-06T00:43:29.709Z,95695
2018-12-06T00:44:31.590Z,95699.4
2018-12-06T00:45:34.012Z,95697.9
2018-12-06T00:46:36.183Z,95694.2
2018-12-06T00:47:38.610Z,95695.9
2018-12-06T00:48:41.081Z,95692.5
2018-12-06T00:49:43.240Z,95690.7
2018-12-06T00:50:45.097Z,95694.6
2018-12-06T00:51:46.993Z,95698.1
2018-12-06T00:52:49.446Z,95694.1
2018-12-06T00:53:51.347Z,95699.5
2018-12-06T00:54:53.780Z,95706.6
2018-12-06T00:55:55.933Z,95705.7
2018-12-06T00:56:58.355Z,95712.6
2018-12-06T00:58:00.506Z,95723.7
2018-12-06T00:59:02.680Z,95730.6
2018-12-06T01:00:05.131Z,95732.4
2018-12-06T01:01:07.558Z,95741.7
2018-12-06T01:02:09.985Z,95738.5
2018-12-06T01:03:12.415Z,95746.1
2018-12-06T01:04:14.839Z,95744.4
2018-12-06T01:05:17.001Z,95741.4
2018-12-06T01:06:19.437Z,95745.4
2018-12-06T01:07:21.590Z,95742.2
2018-12-06T01:08:23.752Z,95750.6
2018-12-06T01:09:25.900Z,95750.1
2018-12-06T01:10:28.061Z,95753.5
2018-12-06T01:11:29.939Z,95748.6
2018-12-06T01:12:32.101Z,95741.9
2018-12-06T01:13:34.526Z,95741.5
2018-12-06T01:14:36.941Z,95735.7
2018-12-06T01:15:39.387Z,95740.4
2018-12-06T01:16:41.829Z,95740.5
2018-12-06T01:17:44.273Z,95740.3
2018-12-06T01:18:45.902Z,95738.2
2018-12-06T01:19:47.762Z,95738.7
2018-12-06T01:20:49.912Z,95738.7
2018-12-06T01:21:52.413Z,95731
2018-12-06T01:22:54.320Z,95730.2
2018-12-06T01:23:56.739Z,95724.6
2018-12-06T01:24:59.174Z,95725.9
2018-12-06T01:26:01.329Z,95725.9
2018-12-06T01:27:03.468Z,95725.3
2018-12-06T01:28:05.889Z,95723.8
2018-12-06T01:29:08.066Z,95721.3
2018-12-06T01:30:10.489Z,95722.2
2018-12-06T01:31:12.925Z,95728
2018-12-06T01:32:15.101Z,95732.4
2018-12-06T01:33:17.286Z,95727.2
2018-12-06T01:34:19.416Z,95729.8
2018-12-06T01:35:21.587Z,95730.7
2018-12-06T01:36:23.744Z,95731.1
2018-12-06T01:37:25.897Z,95721.4
2018-12-06T01:38:28.075Z,95718
2018-12-06T01:39:29.958Z,95718.7
2018-12-06T01:40:32.113Z,95717.5
2018-12-06T01:41:34.539Z,95720.9
2018-12-06T01:42:37.032Z,95722.8
2018-12-06T01:43:39.454Z,95727.8
2018-12-06T01:44:41.621Z,95727.8
2018-12-06T01:45:44.052Z,95730
2018-12-06T01:46:46.210Z,95730.7
2018-12-06T01:47:48.635Z,95742.8
2018-12-06T01:48:50.542Z,95729.3
2018-12-06T01:49:52.972Z,95737.4
2018-12-06T01:50:55.126Z,95734.3
2018-12-06T01:51:57.287Z,95735.7
2018-12-06T01:52:59.725Z,95742.8
2018-12-06T01:54:02.169Z,95744.6
2018-12-06T01:55:04.079Z,95757.4
2018-12-06T01:56:06.599Z,95760.5
2018-12-06T01:57:08.762Z,95768.2
2018-12-06T01:58:10.908Z,95764.6
2018-12-06T01:59:13.336Z,95769.7
2018-12-06T02:00:15.787Z,95763.8
2018-12-06T02:01:17.655Z,95772.5
2018-12-06T02:02:19.795Z,95762.1
2018-12-06T02:03:21.952Z,95765.1
2018-12-06T02:04:24.377Z,95766.6
2018-12-06T02:05:26.810Z,95767.6
2018-12-06T02:06:29.253Z,95764.4
2018-12-06T02:07:31.425Z,95761.7
2018-12-06T02:08:33.580Z,95756.6
2018-12-06T02:09:35.738Z,95760.2
2018-12-06T02:10:38.174Z,95763.5
2018-12-06T02:11:40.664Z,95764.8
2018-12-06T02:12:43.098Z,95761.4
2018-12-06T02:13:45.525Z,95754.9
2018-12-06T02:14:47.959Z,95751.4
2018-12-06T02:15:50.127Z,95752.7
2018-12-06T02:16:52.557Z,95755.3
2018-12-06T02:17:54.445Z,95759.1
2018-12-06T02:18:56.879Z,95757.9
2018-12-06T02:19:59.059Z,95753.2
2018-12-06T02:21:00.938Z,95758.6
2018-12-06T02:22:03.381Z,95761
2018-12-06T02:23:05.291Z,95754.7
2018-12-06T02:24:07.161Z,95755.3
2018-12-06T02:25:09.311Z,95758.7
2018-12-06T02:26:11.450Z,95753.9
2018-12-06T02:27:13.877Z,95754.7
2018-12-06T02:28:16.042Z,95751.3
2018-12-06T02:29:18.170Z,95749.9
2018-12-06T02:30:20.365Z,95748.1
2018-12-06T02:31:22.794Z,95750
2018-12-06T02:32:24.689Z,95749.9
2018-12-06T02:33:27.131Z,95748.4
2018-12-06T02:34:29.008Z,95742.6
2018-12-06T02:35:31.430Z,95741.4
2018-12-06T02:36:33.983Z,95740.7
2018-12-06T02:37:36.402Z,95739.4
2018-12-06T02:38:38.834Z,95741.9
2018-12-06T02:39:41.004Z,95738.3
2018-12-06T02:40:43.424Z,95737.3
2018-12-06T02:41:45.860Z,95736.6
2018-12-06T02:42:47.466Z,95736.1
2018-12-06T02:43:49.361Z,95737.9
2018-12-06T02:44:51.800Z,95738.3
2018-12-06T02:45:54.217Z,95737.5
2018-12-06T02:46:56.643Z,95739.4
2018-12-06T02:47:58.505Z,95736.7
2018-12-06T02:49:00.945Z,95729.5
2018-12-06T02:50:03.097Z,95730.7
2018-12-06T02:51:05.533Z,95729.2
2018-12-06T02:52:07.419Z,95726.8
2018-12-06T02:53:09.870Z,95721.9
2018-12-06T02:54:12.284Z,95715.7
2018-12-06T02:55:14.720Z,95712.5
2018-12-06T02:56:16.892Z,95705
2018-12-06T02:57:19.322Z,95701.7
2018-12-06T02:58:21.732Z,95695.4
2018-12-06T02:59:24.163Z,95694.5
2018-12-06T03:00:26.587Z,95692.9
2018-12-06T03:01:29.022Z,95697.4
2018-12-06T03:02:31.456Z,95695.1
2018-12-06T03:03:33.618Z,95695.5
2018-12-06T03:04:36.043Z,95691
2018-12-06T03:05:38.556Z,95681.1
2018-12-06T03:06:40.701Z,95682.4
2018-12-06T03:07:43.142Z,95683.7
2018-12-06T03:08:45.567Z,95684.7
2018-12-06T03:09:48.008Z,95676
2018-12-06T03:10:50.183Z,95678.1
2018-12-06T03:11:53.404Z,95675.6
2018-12-06T03:12:55.855Z,95672.5
2018-12-06T03:13:58.288Z,95671.5
2018-12-06T03:15:00.430Z,95670
2018-12-06T03:16:02.577Z,95673.8
2018-12-06T03:17:05.013Z,95671.2
2018-12-06T03:18:07.439Z,95673
2018-12-06T03:19:09.858Z,95673.1
2018-12-06T03:20:11.466Z,95667.6
2018-12-06T03:21:13.901Z,95672.2
2018-12-06T03:22:16.066Z,95671.8
2018-12-06T03:23:18.222Z,95669.5
2018-12-06T03:24:20.723Z,95669.2
2018-12-06T03:25:23.142Z,95676.7
2018-12-06T03:26:25.301Z,95673.6
2018-12-06T03:27:27.426Z,95678.3
2018-12-06T03:28:29.857Z,95677
2018-12-06T03:29:31.450Z,95676.1
2018-12-06T03:30:33.607Z,95675.2
2018-12-06T03:31:35.762Z,95676
2018-12-06T03:32:37.907Z,95674.4
2018-12-06T03:33:40.358Z,95674.3
2018-12-06T03:34:42.901Z,95671.8
2018-12-06T03:35:45.329Z,95673.6
2018-12-06T03:36:49.216Z,95672.9
2018-12-06T03:37:51.856Z,95667
2018-12-06T03:38:54.294Z,95669.7
2018-12-06T03:39:56.738Z,95671
2018-12-06T03:40:58.904Z,95676.2
2018-12-06T03:42:01.368Z,95679.5
2018-12-06T03:43:03.798Z,95681
2018-12-06T03:44:06.227Z,95680.2
2018-12-06T03:45:08.658Z,95674.6
2018-12-06T03:46:10.828Z,95681.8
2018-12-06T03:47:13.000Z,95679.3
2018-12-06T03:48:14.889Z,95675.1
2018-12-06T03:49:17.314Z,95671.1
2018-12-06T03:50:19.482Z,95669.9
2018-12-06T03:51:21.363Z,95667.9
2018-12-06T03:52:23.548Z,95668.4
2018-12-06T03:53:25.404Z,95667.7
2018-12-06T03:54:27.855Z,95668.2
2018-12-06T03:55:30.286Z,95666.9
2018-12-06T03:56:32.718Z,95666.1
2018-12-06T03:57:35.150Z,95666.1
2018-12-06T03:58:37.579Z,95665
2018-12-06T03:59:39.702Z,95665.4
2018-12-06T04:00:41.861Z,95664.8
2018-12-06T04:01:43.743Z,95665.5
2018-12-06T04:02:46.168Z,95661.3
2018-12-06T04:03:48.599Z,95657.9
2018-12-06T04:04:51.024Z,95656.9
2018-12-06T04:05:53.209Z,95655.1
2018-12-06T04:06:55.638Z,95652.6
2018-12-06T04:07:58.070Z,95650.2
2018-12-06T04:09:00.236Z,95646.7
2018-12-06T04:10:02.902Z,95647.8
2018-12-06T04:11:05.047Z,95648.2
2018-12-06T04:12:07.492Z,95655.3
2018-12-06T04:13:09.917Z,95650.9
2018-12-06T04:14:12.350Z,95652.5
2018-12-06T04:15:14.209Z,95650.7
2018-12-06T04:16:16.358Z,95648.5
2018-12-06T04:17:18.782Z,95654.5
2018-12-06T04:18:21.034Z,95648.4
2018-12-06T04:19:22.927Z,95651.1
2018-12-06T04:20:26.970Z,95647.1
2018-12-06T04:21:29.388Z,95648.5
2018-12-06T04:22:31.531Z,95646.1
2018-12-06T04:23:33.681Z,95644.8
2018-12-06T04:24:35.825Z,95641.5
2018-12-06T04:25:37.980Z,95643.8
2018-12-06T04:26:40.111Z,95639.1
2018-12-06T04:27:42.001Z,95640
2018-12-06T04:28:44.165Z,95638.3
2018-12-06T04:29:46.318Z,95641.9
2018-12-06T04:30:48.737Z,95635.2
2018-12-06T04:31:51.232Z,95633.4
2018-12-06T04:32:53.661Z,95627.9
2018-12-06T04:33:56.086Z,95621.4
2018-12-06T04:34:58.519Z,95620
2018-12-06T04:36:00.958Z,95617
2018-12-06T04:37:03.529Z,95616.3
2018-12-06T04:38:05.990Z,95614.5
2018-12-06T04:39:08.425Z,95612
2018-12-06T04:40:10.921Z,95615.5
2018-12-06T04:41:13.360Z,95610.6
2018-12-06T04:42:15.504Z,95609.3
2018-12-06T04:43:17.401Z,95609
2018-12-06T04:44:18.711Z,95613.7
2018-12-06T04:45:21.127Z,95616.5
2018-12-06T04:46:23.572Z,95618.2
2018-12-06T04:47:26.298Z,95616.1
2018-12-06T04:48:28.550Z,95615.5
2018-12-06T04:49:31.040Z,95617.8
2018-12-06T04:50:33.506Z,95617.8
2018-12-06T04:51:35.707Z,95616.4
2018-12-06T04:52:37.913Z,95613.7
2018-12-06T04:53:40.075Z,95612.3
2018-12-06T04:54:42.267Z,95613.3
2018-12-06T04:55:44.527Z,95610.4
2018-12-06T04:56:46.975Z,95616.4
2018-12-06T04:57:49.396Z,95611.6
2018-12-06T04:58:51.556Z,95609.2
2018-12-06T04:59:53.716Z,95611
2018-12-06T05:00:56.147Z,95616.3
2018-12-06T05:01:58.014Z,95618.1
2018-12-06T05:03:00.444Z,95617.9
2018-12-06T05:04:02.597Z,95619.5
2018-12-06T05:05:04.739Z,95623.1
2018-12-06T05:06:06.900Z,95623.3
2018-12-06T05:07:09.054Z,95626.5
2018-12-06T05:08:11.209Z,95629.4
2018-12-06T05:09:13.336Z,95626
2018-12-06T05:10:15.209Z,95630
2018-12-06T05:11:17.369Z,95629.8
2018-12-06T05:12:19.800Z,95628.2
2018-12-06T05:13:21.678Z,95629.8
2018-12-06T05:14:23.836Z,95635.3
2018-12-06T05:15:25.995Z,95637.7
2018-12-06T05:16:28.419Z,95642.3
2018-12-06T05:17:30.567Z,95645.8
2018-12-06T05:18:32.731Z,95648.4
2018-12-06T05:19:35.164Z,95650.9
2018-12-06T05:20:37.587Z,95648.4
2018-12-06T05:21:40.020Z,95650.2
2018-12-06T05:22:42.446Z,95656.3
2018-12-06T05:23:44.868Z,95658.5
2018-12-06T05:24:47.321Z,95657.9
2018-12-06T05:25:49.747Z,95671.8
2018-12-06T05:26:52.169Z,95669.8
2018-12-06T05:27:54.587Z,95672.5
2018-12-06T05:28:57.009Z,95674.6
2018-12-06T05:29:59.165Z,95675.9
2018-12-06T05:31:01.332Z,95673.9
2018-12-06T05:32:03.198Z,95677.5
2018-12-06T05:33:05.626Z,95675
2018-12-06T05:34:07.798Z,95670.7
2018-12-06T05:35:09.961Z,95670.2
2018-12-06T05:36:12.117Z,95666.3
2018-12-06T05:37:13.727Z,95663.2
2018-12-06T05:38:15.623Z,95662.4
2018-12-06T05:39:17.780Z,95667.8
2018-12-06T05:40:19.932Z,95675.2
2018-12-06T05:41:22.359Z,95673.1
2018-12-06T05:42:24.527Z,95676
2018-12-06T05:43:26.960Z,95671.2
2018-12-06T05:44:29.114Z,95674.2
2018-12-06T05:45:31.539Z,95669.1
2018-12-06T05:46:33.971Z,95663.2
2018-12-06T05:47:36.395Z,95661.8
2018-12-06T05:48:38.891Z,95662.2
2018-12-06T05:49:41.043Z,95655
2018-12-06T05:50:43.467Z,95658.5
2018-12-06T05:51:45.627Z,95660.5
2018-12-06T05:52:48.080Z,95669
2018-12-06T05:53:50.517Z,95671.5
2018-12-06T05:54:52.950Z,95676.7
2018-12-06T05:55:55.095Z,95669.4
2018-12-06T05:56:56.957Z,95668.4
2018-12-06T05:57:59.124Z,95668.2
2018-12-06T05:59:01.011Z,95670.2
2018-12-06T06:00:03.148Z,95667.9
2018-12-06T06:01:05.006Z,95666.9
2018-12-06T06:02:07.139Z,95668.6
2018-12-06T06:03:09.568Z,95667.6
2018-12-06T06:04:12.047Z,95663.6
2018-12-06T06:05:14.185Z,95669.5
2018-12-06T06:06:16.610Z,95671.5
2018-12-06T06:07:19.036Z,95677.1
2018-12-06T06:08:21.469Z,95679.4
2018-12-06T06:09:25.631Z,95678.5
2018-12-06T06:10:27.821Z,95679.5
2018-12-06T06:11:30.013Z,95691.2
2018-12-06T06:12:32.152Z,95696
2018-12-06T06:13:34.350Z,95687
2018-12-06T06:14:36.815Z,95688
2018-12-06T06:15:39.890Z,95690.1
2018-12-06T06:16:42.361Z,95688.2
2018-12-06T06:17:44.793Z,95693
2018-12-06T06:18:47.219Z,95694.9
2018-12-06T06:19:49.641Z,95696
2018-12-06T06:20:51.786Z,95693.9
2018-12-06T06:21:54.223Z,95690.7
2018-12-06T06:22:56.661Z,95696.5
2018-12-06T06:23:59.086Z,95698
2018-12-06T06:25:01.246Z,95698.6
2018-12-06T06:26:03.678Z,95701.6
2018-12-06T06:27:05.836Z,95703.2
2018-12-06T06:28:08.057Z,95704.9
2018-12-06T06:29:10.232Z,95707.7
2018-12-06T06:30:12.658Z,95707.2
2018-12-06T06:31:15.093Z,95708.1
2018-12-06T06:32:17.270Z,95708.9
2018-12-06T06:33:19.697Z,95708.1
2018-12-06T06:34:21.860Z,95712.8
2018-12-06T06:35:24.017Z,95710.2
2018-12-06T06:36:26.439Z,95713.3
2018-12-06T06:37:28.600Z,95712.6
2018-12-06T06:38:30.456Z,95710.2
2018-12-06T06:39:32.340Z,95711.6
2018-12-06T06:40:34.765Z,95716.8
2018-12-06T06:41:36.919Z,95718
2018-12-06T06:42:39.084Z,95720.1
2018-12-06T06:43:41.518Z,95720.9
2018-12-06T06:44:43.388Z,95724.2
2018-12-06T06:45:45.533Z,95727
2018-12-06T06:46:47.956Z,95727.8
2018-12-06T06:47:50.386Z,95733.8
2018-12-06T06:48:52.813Z,95731.4
2018-12-06T06:49:54.445Z,95734.2
2018-12-06T06:50:56.894Z,95731.6
2018-12-06T06:51:58.793Z,95730.1
2018-12-06T06:53:00.937Z,95734.8
2018-12-06T06:54:03.367Z,95736
2018-12-06T06:55:05.815Z,95737.8
2018-12-06T06:56:08.246Z,95735.7
2018-12-06T06:57:10.399Z,95734.9
2018-12-06T06:58:12.816Z,95732.3
2018-12-06T06:59:14.717Z,95739.6
2018-12-06T07:00:16.322Z,95736.2
2018-12-06T07:01:18.746Z,95732.9
2018-12-06T07:02:20.913Z,95732.1
2018-12-06T07:03:23.054Z,95729.7
2018-12-06T07:04:25.543Z,95725.9
2018-12-06T07:05:27.996Z,95729.2
2018-12-06T07:06:30.177Z,95728.6
2018-12-06T07:07:32.595Z,95727.4
2018-12-06T07:08:35.047Z,95731.3
2018-12-06T07:09:37.470Z,95730.4
2018-12-06T07:10:39.896Z,95726.2
2018-12-06T07:11:42.050Z,95730.1
2018-12-06T07:12:44.495Z,95729.4
2018-12-06T07:13:46.935Z,95730.1
2018-12-06T07:14:49.094Z,95735
2018-12-06T07:15:51.537Z,95733
2018-12-06T07:16:53.689Z,95735.9
2018-12-06T07:17:56.119Z,95735.8
2018-12-06T07:18:58.027Z,95734.4
2018-12-06T07:20:00.455Z,95730.3
2018-12-06T07:21:02.886Z,95731.2
2018-12-06T07:22:05.058Z,95731.8
2018-12-06T07:23:07.209Z,95729.2
2018-12-06T07:24:09.388Z,95725.2
2018-12-06T07:25:11.514Z,95727
2018-12-06T07:26:13.676Z,95727.2
2018-12-06T07:27:15.868Z,95724.1
2018-12-06T07:28:18.049Z,95728.2
2018-12-06T07:29:19.659Z,95729.2
2018-12-06T07:30:22.111Z,95727.4
2018-12-06T07:31:24.276Z,95724.8
2018-12-06T07:32:26.706Z,95725.8
2018-12-06T07:33:29.137Z,95722.9
2018-12-06T07:34:31.556Z,95726.6
2018-12-06T07:35:33.999Z,95726.6
2018-12-06T07:36:36.174Z,95721.2
2018-12-06T07:37:38.333Z,95726.7
2018-12-06T07:38:40.757Z,95725.4
2018-12-06T07:39:42.918Z,95722.2
2018-12-06T07:40:45.361Z,95723.9
2018-12-06T07:41:47.791Z,95727.2
2018-12-06T07:42:49.990Z,95725.1
2018-12-06T07:43:52.151Z,95722.3
2018-12-06T07:44:54.287Z,95721
2018-12-06T07:45:56.466Z,95720.6
2018-12-06T07:46:58.899Z,95718.9
2018-12-06T07:48:01.055Z,95721.5
2018-12-06T07:49:03.201Z,95720.2
2018-12-06T07:50:05.369Z,95723
2018-12-06T07:51:07.531Z,95719.2
2018-12-06T07:52:09.969Z,95718.3
2018-12-06T07:53:12.412Z,95720.9
2018-12-06T07:54:15.553Z,95719
2018-12-06T07:55:18.005Z,95722.3
2018-12-06T07:56:20.443Z,95719.4
2018-12-06T07:57:22.873Z,95718.6
2018-12-06T07:58:25.308Z,95721.7
2018-12-06T07:59:27.485Z,95718.6
2018-12-06T08:00:29.646Z,95719.9
2018-12-06T08:01:31.806Z,95724.1
2018-12-06T08:02:33.425Z,95723.3
2018-12-06T08:03:35.613Z,95720.1
2018-12-06T08:04:38.048Z,95724.5
2018-12-06T08:05:40.478Z,95723.3
2018-12-06T08:06:42.651Z,95723.7
2018-12-06T08:07:45.085Z,95730
2018-12-06T08:08:47.240Z,95732.4
2018-12-06T08:09:49.383Z,95728.5
2018-12-06T08:10:51.817Z,95734
2018-12-06T08:11:53.985Z,95731.1
2018-12-06T08:12:56.478Z,95734.9
2018-12-06T08:13:58.632Z,95737.3
2018-12-06T08:15:00.768Z,95731.6
2018-12-06T08:16:03.215Z,95735.6
2018-12-06T08:17:05.641Z,95730.7
2018-12-06T08:18:08.077Z,95732.4
2018-12-06T08:19:10.229Z,95734
2018-12-06T08:20:12.133Z,95738.4
2018-12-06T08:21:14.560Z,95737
2018-12-06T08:22:16.716Z,95738.1
2018-12-06T08:23:18.571Z,95740.9
2018-12-06T08:24:20.466Z,95739.8
2018-12-06T08:25:22.657Z,95740.8
2018-12-06T08:26:24.803Z,95738.1
2018-12-06T08:27:26.974Z,95742.5
2018-12-06T08:28:29.144Z,95743.4
2018-12-06T08:29:31.314Z,95743.9
2018-12-06T08:30:33.488Z,95750.7
2018-12-06T08:31:35.625Z,95751.8
2018-12-06T08:32:37.781Z,95752
2018-12-06T08:33:39.945Z,95753
2018-12-06T08:34:42.106Z,95753.7
2018-12-06T08:35:44.586Z,95756.3
2018-12-06T08:36:46.742Z,95759.9
2018-12-06T08:37:48.639Z,95761.5
2018-12-06T08:38:50.787Z,95760.8
2018-12-06T08:39:53.209Z,95764.8
2018-12-06T08:40:55.634Z,95766.9
2018-12-06T08:41:58.091Z,95772.2
2018-12-06T08:43:00.240Z,95773.2
2018-12-06T08:44:02.676Z,95771.3
2018-12-06T08:45:04.808Z,95774.5
2018-12-06T08:46:07.247Z,95775.7
2018-12-06T08:47:09.131Z,95781.5
2018-12-06T08:48:11.557Z,95776.2
2018-12-06T08:49:13.983Z,95776.1
2018-12-06T08:50:15.870Z,95781.2
2018-12-06T08:51:18.023Z,95781.5
2018-12-06T08:52:20.456Z,95784.8
2018-12-06T08:53:22.050Z,95778.2
2018-12-06T08:54:23.935Z,95789.9
2018-12-06T08:55:25.805Z,95790.3
2018-12-06T08:56:27.977Z,95790.5
2018-12-06T08:57:30.109Z,95792.4
2018-12-06T08:58:32.544Z,95796
2018-12-06T08:59:35.009Z,95794.1
2018-12-06T09:00:37.170Z,95798.9
2018-12-06T09:01:39.358Z,95800.5
2018-12-06T09:02:41.777Z,95803
2018-12-06T09:03:44.377Z,95802.4
2018-12-06T09:04:46.545Z,95802.6
2018-12-06T09:05:48.758Z,95806.4
2018-12-06T09:06:51.246Z,95805.5
2018-12-06T09:07:53.676Z,95808.9
2018-12-06T09:08:56.103Z,95811.3
2018-12-06T09:09:58.523Z,95810.7
2018-12-06T09:11:00.971Z,95817.4
2018-12-06T09:12:03.140Z,95816.8
2018-12-06T09:13:05.310Z,95819.8
2018-12-06T09:14:07.731Z,95819.5
2018-12-06T09:15:10.158Z,95822.9
2018-12-06T09:16:12.317Z,95824.1
2018-12-06T09:17:14.484Z,95825.5
2018-12-06T09:18:16.909Z,95830.2
2018-12-06T09:19:19.363Z,95830.4
2018-12-06T09:20:21.233Z,95834.1
2018-12-06T09:21:23.127Z,95833.9
2018-12-06T09:22:26.016Z,95833.2
2018-12-06T09:23:28.448Z,95839.8
2018-12-06T09:24:30.876Z,95835
2018-12-06T09:25:33.047Z,95836.4
2018-12-06T09:26:34.959Z,95839.1
2018-12-06T09:27:37.388Z,95841.9
2018-12-06T09:28:39.900Z,95839.2
2018-12-06T09:29:41.777Z,95841.8
2018-12-06T09:30:44.211Z,95845.2
2018-12-06T09:31:46.372Z,95844.9
2018-12-06T09:32:48.794Z,95843.8
2018-12-06T09:33:50.676Z,95842.4
2018-12-06T09:34:52.840Z,95847.2
2018-12-06T09:35:55.011Z,95846.2
2018-12-06T09:36:57.449Z,95850.4
2018-12-06T09:37:59.867Z,95850.5
2018-12-06T09:39:02.293Z,95853.3
2018-12-06T09:40:04.717Z,95856.7
2018-12-06T09:41:07.143Z,95853.5
2018-12-06T09:42:09.579Z,95854.8
2018-12-06T09:43:11.735Z,95851.9
2018-12-06T09:44:13.887Z,95854.4
2018-12-06T09:45:15.784Z,95853.8
2018-12-06T09:46:17.956Z,95855.4
2018-12-06T09:47:20.368Z,95853.9
2018-12-06T09:48:22.801Z,95853
2018-12-06T09:49:24.971Z,95851.9
2018-12-06T09:50:27.403Z,95851.4
2018-12-06T09:51:29.562Z,95849.3
2018-12-06T09:52:31.985Z,95850.6
2018-12-06T09:53:34.416Z,95854.5
2018-12-06T09:54:36.549Z,95851.6
2018-12-06T09:55:38.979Z,95847.1
2018-12-06T09:56:41.125Z,95849.1
2018-12-06T09:57:42.981Z,95844.9
2018-12-06T09:58:45.414Z,95846.2
2018-12-06T09:59:48.485Z,95845.5
2018-12-06T10:00:50.930Z,95846.5
2018-12-06T10:01:53.103Z,95849.6
2018-12-06T10:02:55.532Z,95844.1
2018-12-06T10:03:57.958Z,95842.4
2018-12-06T10:05:00.128Z,95846.9
2018-12-06T10:06:02.291Z,95841.3
2018-12-06T10:07:04.467Z,95840.9
2018-12-06T10:08:06.383Z,95846.7
2018-12-06T10:09:08.870Z,95848.6
2018-12-06T10:10:11.295Z,95850
2018-12-06T10:11:13.716Z,95844.8
2018-12-06T10:12:16.149Z,95846.6
2018-12-06T10:13:18.297Z,95839.1
2018-12-06T10:14:21.247Z,95842.6
2018-12-06T10:15:23.409Z,95845.3
2018-12-06T10:16:25.318Z,95840
2018-12-06T10:17:27.746Z,95847.1
2018-12-06T10:18:30.210Z,95840.4
2018-12-06T10:19:32.359Z,95841.5
2018-12-06T10:20:34.780Z,95840.5
2018-12-06T10:21:36.947Z,95845.2
2018-12-06T10:22:39.134Z,95840.9
2018-12-06T10:23:41.276Z,95842.8
2018-12-06T10:24:43.168Z,95845.3
2018-12-06T10:25:45.600Z,95845.3
2018-12-06T10:26:47.742Z,95847.1
2018-12-06T10:27:50.221Z,95843.2
2018-12-06T10:28:52.369Z,95851.9
2018-12-06T10:29:54.521Z,95850.3
2018-12-06T10:30:56.965Z,95846.4
2018-12-06T10:31:59.152Z,95848.4
2018-12-06T10:33:01.568Z,95852.1
2018-12-06T10:34:03.990Z,95852.5
2018-12-06T10:35:06.416Z,95851
2018-12-06T10:36:08.584Z,95848
2018-12-06T10:37:11.008Z,95856.8
2018-12-06T10:38:13.442Z,95853.7
2018-12-06T10:39:15.594Z,95851.9
2018-12-06T10:40:17.741Z,95853.9
2018-12-06T10:41:20.179Z,95854.8
2018-12-06T10:42:22.337Z,95859.1
2018-12-06T10:43:24.496Z,95862
2018-12-06T10:44:26.651Z,95863.2
2018-12-06T10:45:29.083Z,95865
2018-12-06T10:46:30.950Z,95863.8
2018-12-06T10:47:33.173Z,95863.6
2018-12-06T10:48:35.342Z,95862.3
2018-12-06T10:49:37.782Z,95865.5
2018-12-06T10:50:40.276Z,95864.8
2018-12-06T10:51:42.437Z,95861
2018-12-06T10:52:44.859Z,95862.5
2018-12-06T10:53:46.478Z,95863.8
2018-12-06T10:54:48.636Z,95865.2
2018-12-06T10:55:50.797Z,95863.3
2018-12-06T10:56:52.945Z,95867.8
2018-12-06T10:57:55.415Z,95863.8
2018-12-06T10:58:57.580Z,95867.3
2018-12-06T10:59:59.742Z,95863.3
2018-12-06T11:01:01.898Z,95865.3
2018-12-06T11:02:04.068Z,95865.6
2018-12-06T11:03:05.929Z,95861.4
2018-12-06T11:04:08.079Z,95860.4
2018-12-06T11:05:09.689Z,95864.6
2018-12-06T11:06:11.881Z,95864.5
2018-12-06T11:07:14.069Z,95864
2018-12-06T11:08:16.215Z,95862.2
2018-12-06T11:09:18.645Z,95868.9
2018-12-06T11:10:20.532Z,95870.5
2018-12-06T11:11:22.690Z,95868.7
2018-12-06T11:12:25.175Z,95872.1
2018-12-06T11:13:27.348Z,95869.2
2018-12-06T11:14:29.772Z,95873.4
2018-12-06T11:15:32.273Z,95872.7
2018-12-06T11:16:34.710Z,95875.1
2018-12-06T11:17:37.147Z,95874.5
2018-12-06T11:18:39.576Z,95872
2018-12-06T11:19:42.010Z,95872.7
2018-12-06T11:20:44.158Z,95869.6
2018-12-06T11:21:46.001Z,95871
2018-12-06T11:22:48.151Z,95868.6
2018-12-06T11:23:50.291Z,95868.5
2018-12-06T11:24:52.728Z,95870.9
2018-12-06T11:25:54.896Z,95876.7
2018-12-06T11:26:57.070Z,95877.4
2018-12-06T11:27:58.648Z,95876.7
2018-12-06T11:29:01.067Z,95880.6
2018-12-06T11:30:03.244Z,95883.4
2018-12-06T11:31:05.397Z,95882.7
2018-12-06T11:32:07.577Z,95882.1
2018-12-06T11:33:09.474Z,95885.7
2018-12-06T11:34:11.895Z,95885.1
2018-12-06T11:35:14.134Z,95883.6
2018-12-06T11:36:16.579Z,95884.6
2018-12-06T11:37:18.740Z,95883.6
2018-12-06T11:38:21.168Z,95881.2
2018-12-06T11:39:23.045Z,95880
2018-12-06T11:40:25.482Z,95881.2
2018-12-06T11:41:27.647Z,95881.9
2018-12-06T11:42:29.491Z,95877.4
2018-12-06T11:43:31.920Z,95877.8
2018-12-06T11:44:34.079Z,95877.8
2018-12-06T11:45:36.519Z,95874.3
2018-12-06T11:46:38.727Z,95878.3
2018-12-06T11:47:40.887Z,95876.3
2018-12-06T11:48:43.329Z,95878.5
2018-12-06T11:49:45.253Z,95873
2018-12-06T11:50:47.118Z,95873.4
2018-12-06T11:51:49.541Z,95872.8
2018-12-06T11:52:51.971Z,95879.3
2018-12-06T11:53:54.139Z,95877.3
2018-12-06T11:54:56.593Z,95876.7
2018-12-06T11:55:58.747Z,95872.3
2018-12-06T11:57:00.893Z,95871.7
2018-12-06T11:58:02.778Z,95871.7
2018-12-06T11:59:05.195Z,95870.3
2018-12-06T12:00:07.087Z,95868.1
2018-12-06T12:01:09.514Z,95860.9
2018-12-06T12:02:11.690Z,95863.7
2018-12-06T12:03:13.553Z,95863.6
2018-12-06T12:04:15.429Z,95863.1
2018-12-06T12:05:17.600Z,95857.1
2018-12-06T12:06:20.019Z,95859.5
2018-12-06T12:07:22.172Z,95857.2
2018-12-06T12:08:24.594Z,95856.8
2018-12-06T12:09:26.754Z,95852.3
2018-12-06T12:10:28.900Z,95851.9
2018-12-06T12:11:31.334Z,95851.8
2018-12-06T12:12:33.228Z,95854.8
2018-12-06T12:13:35.654Z,95855.4
2018-12-06T12:14:38.090Z,95853.4
2018-12-06T12:15:39.976Z,95852.8
2018-12-06T12:16:41.858Z,95843.9
2018-12-06T12:17:44.346Z,95842.5
2018-12-06T12:18:46.238Z,95840
2018-12-06T12:19:48.403Z,95840.3
2018-12-06T12:20:50.547Z,95837.6
2018-12-06T12:21:53.003Z,95835.6
2018-12-06T12:22:55.429Z,95835.5
2018-12-06T12:23:57.316Z,95834.5
2018-12-06T12:24:59.749Z,95836.9
2018-12-06T12:26:01.631Z,95832.9
2018-12-06T12:27:04.071Z,95832.7
2018-12-06T12:28:06.506Z,95830.1
2018-12-06T12:29:08.375Z,95830.7
2018-12-06T12:30:10.800Z,95829.4
2018-12-06T12:31:12.983Z,95831.5
2018-12-06T12:32:15.427Z,95829.9
2018-12-06T12:33:17.868Z,95834.4
2018-12-06T12:34:20.303Z,95830.8
2018-12-06T12:35:22.730Z,95832
2018-12-06T12:36:25.186Z,95830.1
2018-12-06T12:37:27.070Z,95825.3
2018-12-06T12:38:29.499Z,95828.1